Time;durP1;ratioP1;P1;durP2;ratioP2;P2;SDS_P1;SDS_P2;PMS_P1;PMS_P2;Temp;Humidity;BMP_temperature;BMP_pressure;BME280_temperature;BME280_humidity;BME280_pressure;Samples;Min_cycle;Max_cycle;Signal;HPM_P1;HPM_P2
2023/01/28 00:00:50;;;;;;;12.37;8.37;;;;;;;;;;5100387;28;20443;-70
2023/01/28 00:03:19;;;;;;;10.10;6.50;;;;;;;;;;5100459;28;20464;-70
2023/01/28 00:05:47;;;;;;;9.83;6.70;;;;;;;;;;5099956;28;20447;-70
2023/01/28 00:08:15;;;;;;;12.77;7.17;;;;;;;;;;5099794;28;20444;-70
2023/01/28 00:10:43;;;;;;;11.43;7.40;;;;;;;;;;5100073;28;20483;-70
2023/01/28 00:13:13;;;;;;;13.73;7.60;;;;;;;;;;5099940;28;20460;-70
2023/01/28 00:15:41;;;;;;;12.20;7.97;;;;;;;;;;5099924;28;20879;-70
2023/01/28 00:18:10;;;;;;;11.93;7.50;;;;;;;;;;5100142;28;20470;-70
2023/01/28 00:20:39;;;;;;;10.93;6.70;;;;;;;;;;5096329;28;20451;-70
2023/01/28 00:23:07;;;;;;;13.17;8.10;;;;;;;;;;5098305;28;20966;-71
2023/01/28 00:25:35;;;;;;;13.17;7.20;;;;;;;;;;5098882;28;20791;-70
2023/01/28 00:28:04;;;;;;;9.37;7.20;;;;;;;;;;5099334;28;20447;-70
2023/01/28 00:30:32;;;;;;;10.20;7.43;;;;;;;;;;5099527;28;20487;-70
2023/01/28 00:33:00;;;;;;;13.73;7.53;;;;;;;;;;5099763;28;20551;-70
2023/01/28 00:35:28;;;;;;;10.97;7.00;;;;;;;;;;5099131;28;20503;-70
2023/01/28 00:37:59;;;;;;;10.40;6.07;;;;;;;;;;5099050;28;20531;-70
2023/01/28 00:40:27;;;;;;;11.37;7.57;;;;;;;;;;5099514;28;20467;-70
2023/01/28 00:42:55;;;;;;;8.93;6.13;;;;;;;;;;5099256;28;20817;-70
2023/01/28 00:45:22;;;;;;;10.00;7.10;;;;;;;;;;5099592;28;20448;-70
2023/01/28 00:47:50;;;;;;;10.70;7.27;;;;;;;;;;5087577;28;20932;-70
2023/01/28 00:50:20;;;;;;;10.60;7.40;;;;;;;;;;5097049;28;20787;-70
2023/01/28 00:52:48;;;;;;;10.97;6.40;;;;;;;;;;5097149;28;20459;-70
2023/01/28 00:55:17;;;;;;;10.33;7.13;;;;;;;;;;5083760;28;20444;-70
2023/01/28 00:57:45;;;;;;;10.17;6.60;;;;;;;;;;5096738;28;20474;-70
2023/01/28 01:00:14;;;;;;;10.97;6.83;;;;;;;;;;5097363;28;20448;-70
2023/01/28 01:02:42;;;;;;;13.67;7.73;;;;;;;;;;5097019;28;20459;-70
2023/01/28 01:05:10;;;;;;;8.03;6.37;;;;;;;;;;5098229;28;20447;-70
2023/01/28 01:07:41;;;;;;;10.93;6.50;;;;;;;;;;5098962;28;20448;-70
2023/01/28 01:10:10;;;;;;;8.00;6.60;;;;;;;;;;5099158;28;20447;-71
2023/01/28 01:12:40;;;;;;;8.87;6.80;;;;;;;;;;5098717;28;20552;-70
2023/01/28 01:15:09;;;;;;;10.03;6.00;;;;;;;;;;5098867;28;20969;-70
2023/01/28 01:17:37;;;;;;;13.13;7.77;;;;;;;;;;5098880;28;20444;-69
2023/01/28 01:20:06;;;;;;;10.47;6.97;;;;;;;;;;5098727;28;20444;-70
2023/01/28 01:22:34;;;;;;;9.50;7.20;;;;;;;;;;5098562;28;20479;-70
2023/01/28 01:25:02;;;;;;;11.83;7.93;;;;;;;;;;5098541;28;20475;-71
2023/01/28 01:27:30;;;;;;;6.83;5.70;;;;;;;;;;5098830;28;20479;-70
2023/01/28 01:30:00;;;;;;;10.33;6.80;;;;;;;;;;5098737;28;20472;-70
2023/01/28 01:32:29;;;;;;;9.93;6.77;;;;;;;;;;5098288;28;20505;-70
2023/01/28 01:34:57;;;;;;;10.10;6.73;;;;;;;;;;5098131;28;20472;-69
2023/01/28 01:37:25;;;;;;;11.33;6.83;;;;;;;;;;5097925;28;20478;-69
2023/01/28 01:39:53;;;;;;;8.47;6.30;;;;;;;;;;5098481;28;20447;-71
2023/01/28 01:42:21;;;;;;;9.90;6.47;;;;;;;;;;5098404;28;20466;-71
2023/01/28 01:44:54;;;;;;;10.33;7.17;;;;;;;;;;5098629;28;20439;-71
2023/01/28 01:47:25;;;;;;;11.57;6.60;;;;;;;;;;5090626;28;20837;-71
2023/01/28 01:49:53;;;;;;;8.83;6.20;;;;;;;;;;5098164;28;20945;-71
2023/01/28 01:52:24;;;;;;;8.80;6.60;;;;;;;;;;5097666;28;20846;-71
2023/01/28 01:54:53;;;;;;;11.53;7.13;;;;;;;;;;5098194;28;20873;-71
2023/01/28 01:57:24;;;;;;;11.73;6.67;;;;;;;;;;5098050;28;20454;-72
2023/01/28 01:59:52;;;;;;;11.23;7.27;;;;;;;;;;5098192;28;20471;-71
2023/01/28 02:02:20;;;;;;;8.27;6.27;;;;;;;;;;5097814;28;20480;-70
2023/01/28 02:04:50;;;;;;;8.83;6.70;;;;;;;;;;5098168;28;20472;-70
2023/01/28 02:07:18;;;;;;;8.47;6.53;;;;;;;;;;5097827;28;20483;-70
2023/01/28 02:09:46;;;;;;;8.37;6.30;;;;;;;;;;5097083;28;20478;-71
2023/01/28 02:12:17;;;;;;;8.93;6.90;;;;;;;;;;5098091;28;20514;-71
2023/01/28 02:14:47;;;;;;;8.40;6.20;;;;;;;;;;5098185;28;20439;-71
2023/01/28 02:17:15;;;;;;;9.23;7.03;;;;;;;;;;5097998;28;20448;-71
2023/01/28 02:19:47;;;;;;;6.90;5.80;;;;;;;;;;5097717;28;20444;-71
2023/01/28 02:22:22;;;;;;;9.73;6.67;;;;;;;;;;5097706;28;20443;-70
2023/01/28 02:25:10;;;;;;;7.57;6.10;;;;;;;;;;5097619;28;20938;-70
2023/01/28 02:27:49;;;;;;;10.07;7.07;;;;;;;;;;5064301;28;20452;-70
2023/01/28 02:30:21;;;;;;;8.43;6.77;;;;;;;;;;5097737;28;20446;-69
2023/01/28 02:32:53;;;;;;;8.97;7.10;;;;;;;;;;5097521;28;21013;-70
2023/01/28 02:35:24;;;;;;;6.13;5.33;;;;;;;;;;5084356;28;20510;-70
2023/01/28 02:37:54;;;;;;;9.07;6.10;;;;;;;;;;5093579;28;20823;-70
2023/01/28 02:40:26;;;;;;;11.27;7.13;;;;;;;;;;5097748;28;20470;-70
2023/01/28 02:42:55;;;;;;;8.53;6.40;;;;;;;;;;5097449;28;20486;-71
2023/01/28 02:47:56;;;;;;;9.43;6.37;;;;;;;;;;5097413;28;20474;-71
2023/01/28 02:48:12;;;;;;;8.30;6.13;;;;;;;;;;5096466;28;20470;-71
2023/01/28 02:50:46;;;;;;;9.00;6.60;;;;;;;;;;5097113;28;20439;-71
2023/01/28 02:56:11;;;;;;;9.40;6.93;;;;;;;;;;5095670;28;20482;-71
2023/01/28 02:58:43;;;;;;;9.30;6.40;;;;;;;;;;5097564;28;20447;-70
2023/01/28 03:01:16;;;;;;;9.10;6.83;;;;;;;;;;5097389;28;20879;-70
2023/01/28 03:03:50;;;;;;;7.53;5.77;;;;;;;;;;5097035;28;20876;-70
2023/01/28 03:06:20;;;;;;;7.73;6.07;;;;;;;;;;5097165;28;20938;-69
2023/01/28 03:36:48;;;;;;;8.63;7.00;;;;;;;;;;5100652;28;20447;-70
2023/01/28 03:39:17;;;;;;;9.27;6.57;;;;;;;;;;5100511;28;20538;-69
2023/01/28 03:41:55;;;;;;;6.77;6.07;;;;;;;;;;5100784;28;20440;-69
2023/01/28 03:47:10;;;;;;;8.23;6.37;;;;;;;;;;5094986;28;20452;-69
2023/01/28 03:49:39;;;;;;;9.03;6.80;;;;;;;;;;5098321;28;20443;-70
2023/01/28 03:52:07;;;;;;;9.73;6.40;;;;;;;;;;5100504;28;20511;-69
2023/01/28 03:54:35;;;;;;;7.83;5.80;;;;;;;;;;5100333;28;20822;-69
2023/01/28 03:57:04;;;;;;;6.83;6.00;;;;;;;;;;5100749;28;20439;-69
2023/01/28 03:59:33;;;;;;;9.67;5.93;;;;;;;;;;5100229;28;20878;-69
2023/01/28 04:02:02;;;;;;;8.10;6.13;;;;;;;;;;5100474;28;20448;-69
2023/01/28 04:04:31;;;;;;;7.83;6.10;;;;;;;;;;5100044;28;20459;-69
2023/01/28 04:07:00;;;;;;;10.30;5.93;;;;;;;;;;5100502;28;20454;-69
2023/01/28 04:09:28;;;;;;;9.87;6.33;;;;;;;;;;5099898;28;20471;-69
2023/01/28 04:11:56;;;;;;;8.57;6.17;;;;;;;;;;5100195;28;20510;-70
2023/01/28 04:14:24;;;;;;;10.17;6.67;;;;;;;;;;5099930;28;20894;-70
2023/01/28 04:16:53;;;;;;;8.83;6.40;;;;;;;;;;5100232;28;20447;-70
2023/01/28 04:19:21;;;;;;;7.63;5.67;;;;;;;;;;5099660;28;20439;-69
2023/01/28 04:21:52;;;;;;;8.30;5.87;;;;;;;;;;5099883;28;20435;-69
2023/01/28 04:24:20;;;;;;;11.70;7.10;;;;;;;;;;5097148;28;20502;-70
2023/01/28 04:26:49;;;;;;;7.97;6.53;;;;;;;;;;5098101;28;21125;-69
2023/01/28 04:29:17;;;;;;;8.83;6.40;;;;;;;;;;5098463;28;20531;-69
2023/01/28 04:31:45;;;;;;;8.60;5.97;;;;;;;;;;5098913;28;20448;-69
2023/01/28 04:34:13;;;;;;;12.30;6.57;;;;;;;;;;5098969;28;20511;-69
2023/01/28 04:36:41;;;;;;;11.90;6.50;;;;;;;;;;5099521;28;20523;-69
2023/01/28 04:39:10;;;;;;;8.37;6.30;;;;;;;;;;5099226;28;20953;-69
2023/01/28 04:41:38;;;;;;;9.73;7.03;;;;;;;;;;5099654;28;20475;-70
2023/01/28 04:44:06;;;;;;;10.33;7.23;;;;;;;;;;5099207;28;20491;-69
2023/01/28 04:46:34;;;;;;;9.00;6.20;;;;;;;;;;5098338;28;20444;-70
2023/01/28 04:49:03;;;;;;;9.53;7.13;;;;;;;;;;5097867;28;20439;-69
2023/01/28 04:51:30;;;;;;;10.37;6.50;;;;;;;;;;5099425;28;20443;-70
2023/01/28 04:53:58;;;;;;;8.60;6.20;;;;;;;;;;5098709;28;20853;-69
2023/01/28 04:56:28;;;;;;;8.03;6.43;;;;;;;;;;5097731;28;20479;-69
2023/01/28 04:58:56;;;;;;;9.30;6.47;;;;;;;;;;5097391;28;20478;-69
2023/01/28 05:01:24;;;;;;;9.70;6.90;;;;;;;;;;5097166;28;20446;-69
2023/01/28 05:03:52;;;;;;;8.73;6.27;;;;;;;;;;5097285;28;20459;-69
2023/01/28 05:06:20;;;;;;;8.70;6.47;;;;;;;;;;5096906;28;20471;-69
2023/01/28 05:08:48;;;;;;;7.73;6.57;;;;;;;;;;5096844;28;20471;-69
2023/01/28 05:11:16;;;;;;;10.33;6.63;;;;;;;;;;5098508;28;20439;-69
2023/01/28 05:13:46;;;;;;;8.20;6.80;;;;;;;;;;5098732;28;20507;-71
2023/01/28 05:16:14;;;;;;;9.20;6.60;;;;;;;;;;5099011;28;20472;-70
2023/01/28 05:18:42;;;;;;;8.63;6.47;;;;;;;;;;5098644;28;20943;-70
2023/01/28 05:21:11;;;;;;;8.83;7.17;;;;;;;;;;5098844;28;20443;-70
2023/01/28 05:23:39;;;;;;;9.17;6.63;;;;;;;;;;5098228;28;20902;-69
2023/01/28 05:26:07;;;;;;;7.57;6.17;;;;;;;;;;5098768;28;20534;-70
2023/01/28 05:28:35;;;;;;;10.00;6.53;;;;;;;;;;5098784;28;20487;-69
2023/01/28 05:31:05;;;;;;;9.47;6.07;;;;;;;;;;5098857;28;20444;-70
2023/01/28 05:33:33;;;;;;;7.33;6.10;;;;;;;;;;5098398;28;20548;-69
2023/01/28 05:36:01;;;;;;;9.53;5.70;;;;;;;;;;5098240;28;20477;-69
2023/01/28 05:38:29;;;;;;;10.23;7.00;;;;;;;;;;5098116;28;20504;-70
2023/01/28 05:40:57;;;;;;;11.27;7.43;;;;;;;;;;5098649;28;20443;-70
2023/01/28 05:43:25;;;;;;;10.17;6.57;;;;;;;;;;5098123;28;20459;-70
2023/01/28 05:45:53;;;;;;;10.43;6.93;;;;;;;;;;5098565;28;20446;-70
2023/01/28 05:48:23;;;;;;;7.07;5.87;;;;;;;;;;5088637;28;20823;-70
2023/01/28 05:50:50;;;;;;;8.57;6.50;;;;;;;;;;5098366;28;20444;-70
2023/01/28 05:53:19;;;;;;;8.00;6.07;;;;;;;;;;5097761;28;20540;-71
2023/01/28 05:55:48;;;;;;;7.03;5.80;;;;;;;;;;5098379;28;20523;-71
2023/01/28 05:58:16;;;;;;;7.97;6.17;;;;;;;;;;5098417;28;20491;-70
2023/01/28 06:00:44;;;;;;;9.43;6.70;;;;;;;;;;5098461;28;20444;-69
2023/01/28 06:03:12;;;;;;;7.13;5.57;;;;;;;;;;5097917;28;20459;-69
2023/01/28 06:05:44;;;;;;;8.37;6.80;;;;;;;;;;5097933;28;20447;-69
2023/01/28 06:08:12;;;;;;;8.10;6.30;;;;;;;;;;5097744;28;20789;-69
2023/01/28 06:10:40;;;;;;;10.80;6.83;;;;;;;;;;5097892;28;20439;-69
2023/01/28 06:13:10;;;;;;;10.67;6.20;;;;;;;;;;5097729;28;20494;-69
2023/01/28 06:15:38;;;;;;;8.67;6.40;;;;;;;;;;5097800;28;20950;-69
2023/01/28 06:18:06;;;;;;;8.13;6.50;;;;;;;;;;5098019;28;20496;-69
2023/01/28 06:20:34;;;;;;;9.57;6.37;;;;;;;;;;5097438;28;20943;-69
2023/01/28 06:23:03;;;;;;;9.10;6.67;;;;;;;;;;5097637;28;20463;-69
2023/01/28 06:25:31;;;;;;;9.53;6.10;;;;;;;;;;5097721;28;20873;-69
2023/01/28 06:27:59;;;;;;;6.73;5.37;;;;;;;;;;5097735;28;20471;-69
2023/01/28 06:30:27;;;;;;;6.90;4.63;;;;;;;;;;5097697;28;20938;-69
2023/01/28 06:32:56;;;;;;;11.77;6.60;;;;;;;;;;5097640;28;20467;-69
2023/01/28 06:35:24;;;;;;;7.90;5.57;;;;;;;;;;5097515;28;20499;-69
2023/01/28 06:37:52;;;;;;;9.00;6.37;;;;;;;;;;5097347;28;20515;-69
2023/01/28 06:40:23;;;;;;;9.00;6.30;;;;;;;;;;5097775;28;20475;-69
2023/01/28 06:42:51;;;;;;;9.27;6.60;;;;;;;;;;5097673;28;20460;-69
2023/01/28 06:45:19;;;;;;;7.63;5.87;;;;;;;;;;5097856;28;20439;-69
2023/01/28 06:47:47;;;;;;;8.00;5.93;;;;;;;;;;5089442;28;20506;-69
2023/01/28 06:50:15;;;;;;;8.63;5.67;;;;;;;;;;5097837;28;20440;-69
2023/01/28 06:52:44;;;;;;;8.87;5.90;;;;;;;;;;5097403;28;20460;-69
2023/01/28 06:55:12;;;;;;;7.73;6.10;;;;;;;;;;5099133;28;20596;-69
2023/01/28 06:57:44;;;;;;;7.83;6.03;;;;;;;;;;5101780;28;20439;-70
2023/01/28 07:00:14;;;;;;;9.87;6.43;;;;;;;;;;5101471;28;20816;-69
2023/01/28 07:02:43;;;;;;;8.23;5.83;;;;;;;;;;5101361;28;20459;-70
2023/01/28 07:05:14;;;;;;;9.43;6.27;;;;;;;;;;5101544;28;20443;-70
2023/01/28 07:07:42;;;;;;;12.00;6.07;;;;;;;;;;5101358;28;20454;-69
2023/01/28 07:10:10;;;;;;;8.57;6.57;;;;;;;;;;5101253;28;20875;-68
2023/01/28 07:12:38;;;;;;;9.43;5.77;;;;;;;;;;5101168;28;20953;-69
2023/01/28 07:15:10;;;;;;;11.17;6.93;;;;;;;;;;5101287;28;20490;-69
2023/01/28 07:17:39;;;;;;;7.67;6.27;;;;;;;;;;5101403;28;20439;-69
2023/01/28 07:20:08;;;;;;;8.03;6.00;;;;;;;;;;5101156;28;20468;-69
2023/01/28 07:22:36;;;;;;;16.77;6.37;;;;;;;;;;5101033;28;20453;-69
2023/01/28 07:25:04;;;;;;;9.97;6.70;;;;;;;;;;5101098;28;20499;-68
2023/01/28 07:27:32;;;;;;;8.27;5.97;;;;;;;;;;5101265;28;20451;-69
2023/01/28 07:30:00;;;;;;;7.77;6.40;;;;;;;;;;5100769;28;20502;-69
2023/01/28 07:32:30;;;;;;;9.33;7.07;;;;;;;;;;5100975;28;20443;-69
2023/01/28 07:34:58;;;;;;;8.33;6.57;;;;;;;;;;5100385;28;20519;-69
2023/01/28 07:37:26;;;;;;;9.30;7.50;;;;;;;;;;5100344;28;20446;-69
2023/01/28 07:39:54;;;;;;;8.23;6.23;;;;;;;;;;5100486;28;20483;-69
2023/01/28 07:42:22;;;;;;;8.27;5.87;;;;;;;;;;5100720;28;20439;-69
2023/01/28 07:44:50;;;;;;;7.23;5.93;;;;;;;;;;5100871;28;20528;-69
2023/01/28 07:47:18;;;;;;;8.40;6.07;;;;;;;;;;5093388;28;20522;-68
2023/01/28 07:49:48;;;;;;;8.43;6.50;;;;;;;;;;5099447;28;20447;-69
2023/01/28 07:52:16;;;;;;;8.73;6.20;;;;;;;;;;5100221;28;20451;-69
2023/01/28 07:54:44;;;;;;;8.80;6.70;;;;;;;;;;5100493;28;20511;-68
2023/01/28 07:57:12;;;;;;;8.17;5.93;;;;;;;;;;5100386;28;20522;-69
2023/01/28 07:59:40;;;;;;;8.50;6.50;;;;;;;;;;5100346;28;20526;-68
2023/01/28 08:02:10;;;;;;;10.03;6.87;;;;;;;;;;5100453;28;20505;-68
2023/01/28 08:04:39;;;;;;;7.07;5.83;;;;;;;;;;5100023;28;20900;-69
2023/01/28 08:07:08;;;;;;;10.73;6.70;;;;;;;;;;5099726;28;20457;-69
2023/01/28 08:09:36;;;;;;;8.50;6.33;;;;;;;;;;5100356;28;20451;-69
2023/01/28 08:12:05;;;;;;;7.07;5.87;;;;;;;;;;5099838;28;20483;-69
2023/01/28 08:14:33;;;;;;;10.40;6.63;;;;;;;;;;5099789;28;20543;-69
2023/01/28 08:17:01;;;;;;;8.80;6.80;;;;;;;;;;5100181;28;20445;-69
2023/01/28 08:19:29;;;;;;;8.73;6.80;;;;;;;;;;5099900;28;20440;-69
2023/01/28 08:21:57;;;;;;;7.33;6.37;;;;;;;;;;5099683;28;20444;-69
2023/01/28 08:24:26;;;;;;;6.90;5.87;;;;;;;;;;5099843;28;20495;-69
2023/01/28 08:26:54;;;;;;;8.57;6.53;;;;;;;;;;5099633;28;20811;-69
2023/01/28 08:29:22;;;;;;;8.27;6.60;;;;;;;;;;5099613;28;20482;-68
2023/01/28 08:31:50;;;;;;;9.70;6.47;;;;;;;;;;5099760;28;20525;-69
2023/01/28 08:34:18;;;;;;;8.00;5.60;;;;;;;;;;5096660;28;20845;-70
2023/01/28 08:36:46;;;;;;;7.27;5.50;;;;;;;;;;5097531;28;20512;-70
2023/01/28 08:39:14;;;;;;;9.10;7.07;;;;;;;;;;5098196;28;20542;-70
2023/01/28 08:41:43;;;;;;;8.30;5.93;;;;;;;;;;5098772;28;21724;-70
2023/01/28 08:44:11;;;;;;;11.87;6.83;;;;;;;;;;5099538;28;20486;-70
2023/01/28 08:46:39;;;;;;;9.10;6.97;;;;;;;;;;5097634;28;20443;-70
2023/01/28 08:49:07;;;;;;;8.73;6.00;;;;;;;;;;5091596;28;20535;-70
2023/01/28 08:51:35;;;;;;;10.00;6.70;;;;;;;;;;5098999;28;20447;-70
2023/01/28 08:54:03;;;;;;;7.33;6.17;;;;;;;;;;5098774;28;20473;-70
2023/01/28 08:56:31;;;;;;;8.43;5.93;;;;;;;;;;5098975;28;20471;-70
2023/01/28 08:59:01;;;;;;;10.90;6.20;;;;;;;;;;5099297;28;20472;-70
2023/01/28 09:01:29;;;;;;;6.80;6.03;;;;;;;;;;5099261;28;20455;-70
2023/01/28 09:03:57;;;;;;;10.40;6.60;;;;;;;;;;5098102;28;20508;-70
2023/01/28 09:06:25;;;;;;;7.27;6.10;;;;;;;;;;5097144;28;20491;-70
2023/01/28 09:08:53;;;;;;;9.23;6.37;;;;;;;;;;5096862;28;20534;-70
2023/01/28 09:11:21;;;;;;;8.80;5.93;;;;;;;;;;5096971;28;20487;-71
2023/01/28 09:13:49;;;;;;;8.07;6.90;;;;;;;;;;5096944;28;20471;-69
2023/01/28 09:16:18;;;;;;;7.00;6.00;;;;;;;;;;5096761;28;21005;-70
2023/01/28 09:18:47;;;;;;;8.37;6.17;;;;;;;;;;5096658;28;20436;-72
2023/01/28 09:21:15;;;;;;;7.30;6.27;;;;;;;;;;5098548;28;20509;-71
2023/01/28 09:23:43;;;;;;;9.60;6.40;;;;;;;;;;5098643;28;20471;-71
2023/01/28 09:26:11;;;;;;;7.73;6.10;;;;;;;;;;5098938;28;20447;-71
2023/01/28 09:28:39;;;;;;;6.83;5.47;;;;;;;;;;5098475;28;20448;-71
2023/01/28 09:31:08;;;;;;;8.43;6.27;;;;;;;;;;5098807;28;20479;-71
2023/01/28 09:33:38;;;;;;;7.93;5.77;;;;;;;;;;5098319;28;20460;-71
2023/01/28 09:36:07;;;;;;;10.53;6.33;;;;;;;;;;5098425;28;20906;-71
2023/01/28 09:38:35;;;;;;;10.53;7.57;;;;;;;;;;5098440;28;20474;-71
2023/01/28 09:41:11;;;;;;;9.07;6.07;;;;;;;;;;5098646;28;20444;-72
2023/01/28 09:43:53;;;;;;;7.97;6.13;;;;;;;;;;5098529;28;20459;-72
2023/01/28 09:46:21;;;;;;;8.00;6.37;;;;;;;;;;5098592;28;20440;-71
2023/01/28 09:48:51;;;;;;;9.60;6.07;;;;;;;;;;5089901;28;20455;-72
2023/01/28 09:51:26;;;;;;;10.03;6.40;;;;;;;;;;5098319;28;20444;-72
2023/01/28 09:53:55;;;;;;;7.87;6.47;;;;;;;;;;5097852;28;20462;-72
2023/01/28 09:56:25;;;;;;;8.57;6.67;;;;;;;;;;5084910;28;20475;-71
2023/01/28 09:58:53;;;;;;;7.40;6.03;;;;;;;;;;5098322;28;20457;-71
2023/01/28 10:01:36;;;;;;;7.50;6.17;;;;;;;;;;5097999;28;20939;-72
2023/01/28 10:04:11;;;;;;;9.27;6.70;;;;;;;;;;5098171;28;20498;-71
2023/01/28 10:06:44;;;;;;;7.97;5.90;;;;;;;;;;5097968;28;20938;-71
2023/01/28 10:09:21;;;;;;;8.40;6.57;;;;;;;;;;5097877;28;20428;-71
2023/01/28 10:11:54;;;;;;;10.23;5.90;;;;;;;;;;5098248;28;20443;-72
2023/01/28 10:14:26;;;;;;;8.00;5.83;;;;;;;;;;5098139;28;20464;-71
2023/01/28 10:16:57;;;;;;;6.97;6.27;;;;;;;;;;5098298;28;20487;-71
2023/01/28 10:19:29;;;;;;;6.73;5.70;;;;;;;;;;5097690;28;20435;-71
2023/01/28 10:21:59;;;;;;;8.33;5.50;;;;;;;;;;5097573;28;20935;-73
2023/01/28 10:24:30;;;;;;;8.20;5.63;;;;;;;;;;5098072;28;20463;-72
2023/01/28 10:26:58;;;;;;;8.83;7.17;;;;;;;;;;5097976;28;20450;-71
2023/01/28 10:29:27;;;;;;;10.80;6.57;;;;;;;;;;5097769;28;20475;-71
2023/01/28 10:31:57;;;;;;;7.53;5.83;;;;;;;;;;5102075;28;20443;-71
2023/01/28 10:34:27;;;;;;;8.80;6.33;;;;;;;;;;5101637;28;20475;-71
2023/01/28 10:36:56;;;;;;;9.93;6.33;;;;;;;;;;5101783;28;20483;-72
2023/01/28 10:39:25;;;;;;;10.63;6.73;;;;;;;;;;5101649;28;20443;-71
2023/01/28 10:41:53;;;;;;;8.87;6.77;;;;;;;;;;5101955;28;20448;-71
2023/01/28 10:44:30;;;;;;;9.83;5.77;;;;;;;;;;5101862;28;20538;-72
2023/01/28 10:47:01;;;;;;;9.13;6.43;;;;;;;;;;5097347;28;20448;-70
2023/01/28 10:49:31;;;;;;;8.93;5.90;;;;;;;;;;5098014;28;20443;-71
2023/01/28 10:51:59;;;;;;;9.43;6.30;;;;;;;;;;5101442;28;20798;-71
2023/01/28 10:54:28;;;;;;;10.17;6.57;;;;;;;;;;5101757;28;20471;-71
2023/01/28 10:56:57;;;;;;;7.43;6.07;;;;;;;;;;5101769;28;20487;-71
2023/01/28 10:59:27;;;;;;;8.20;6.17;;;;;;;;;;5101429;28;20521;-69
2023/01/28 11:01:56;;;;;;;7.33;5.43;;;;;;;;;;5101527;28;20475;-70
2023/01/28 11:04:25;;;;;;;7.43;5.03;;;;;;;;;;5101059;28;20467;-69
2023/01/28 11:06:56;;;;;;;6.87;6.17;;;;;;;;;;5101116;28;20452;-69
2023/01/28 11:09:25;;;;;;;7.17;5.90;;;;;;;;;;5101615;28;20445;-69
2023/01/28 11:11:53;;;;;;;6.87;5.43;;;;;;;;;;5101178;28;20526;-69
2023/01/28 11:14:25;;;;;;;8.03;6.03;;;;;;;;;;5101153;28;20893;-69
2023/01/28 11:16:54;;;;;;;8.23;5.50;;;;;;;;;;5101013;28;20534;-69
2023/01/28 11:19:25;;;;;;;8.40;5.87;;;;;;;;;;5100869;28;20435;-69
2023/01/28 11:21:56;;;;;;;12.53;5.40;;;;;;;;;;5100726;28;20500;-69
2023/01/28 11:24:26;;;;;;;6.37;4.70;;;;;;;;;;5101551;28;20466;-69
2023/01/28 11:26:56;;;;;;;6.83;5.67;;;;;;;;;;5101171;28;20468;-69
2023/01/28 11:29:26;;;;;;;5.43;4.80;;;;;;;;;;5100950;28;20927;-69
2023/01/28 11:31:54;;;;;;;5.67;4.97;;;;;;;;;;5100750;28;20454;-70
2023/01/28 11:34:25;;;;;;;8.87;5.60;;;;;;;;;;5100619;28;20479;-70
2023/01/28 11:37:00;;;;;;;9.00;6.20;;;;;;;;;;5100328;28;20565;-71
2023/01/28 11:39:28;;;;;;;7.33;5.17;;;;;;;;;;5100922;28;20449;-71
2023/01/28 11:42:03;;;;;;;7.17;5.50;;;;;;;;;;5100483;28;20444;-71
2023/01/28 11:44:31;;;;;;;5.93;4.77;;;;;;;;;;5100790;28;20553;-72
2023/01/28 11:47:10;;;;;;;6.60;5.40;;;;;;;;;;5096229;28;20536;-71
2023/01/28 11:49:44;;;;;;;6.73;5.40;;;;;;;;;;5098221;28;20439;-71
2023/01/28 11:52:17;;;;;;;8.97;6.17;;;;;;;;;;5100428;28;20453;-71
2023/01/28 11:54:50;;;;;;;7.00;5.20;;;;;;;;;;5100438;28;20806;-71
2023/01/28 11:57:23;;;;;;;7.37;5.53;;;;;;;;;;5100193;28;20532;-71
2023/01/28 12:00:10;;;;;;;7.07;5.50;;;;;;;;;;5100587;28;20444;-71
2023/01/28 12:02:53;;;;;;;8.10;5.43;;;;;;;;;;5100177;28;20464;-70
2023/01/28 12:05:36;;;;;;;9.70;5.30;;;;;;;;;;5100510;28;20440;-70
2023/01/28 12:08:09;;;;;;;6.73;4.83;;;;;;;;;;5100132;28;20436;-70
2023/01/28 12:10:41;;;;;;;7.07;5.17;;;;;;;;;;5100122;28;20452;-70
2023/01/28 12:13:15;;;;;;;5.47;4.17;;;;;;;;;;5100286;28;20495;-69
2023/01/28 12:16:00;;;;;;;6.40;4.87;;;;;;;;;;5100214;28;20490;-70
2023/01/28 12:18:34;;;;;;;6.50;5.20;;;;;;;;;;5098426;28;20485;-69
2023/01/28 12:21:07;;;;;;;6.23;4.87;;;;;;;;;;5099831;28;20814;-70
2023/01/28 12:23:45;;;;;;;5.53;4.47;;;;;;;;;;5099462;28;20463;-69
2023/01/28 12:26:16;;;;;;;6.30;4.50;;;;;;;;;;5100133;28;20491;-69
2023/01/28 12:28:52;;;;;;;5.27;4.37;;;;;;;;;;5100024;28;20451;-69
2023/01/28 12:31:43;;;;;;;5.83;5.10;;;;;;;;;;5099967;28;20470;-69
2023/01/28 12:34:27;;;;;;;12.97;8.00;;;;;;;;;;5079581;28;20558;-70
2023/01/28 12:37:02;;;;;;;9.17;4.97;;;;;;;;;;5099613;28;20479;-69
2023/01/28 12:39:36;;;;;;;6.43;5.03;;;;;;;;;;5099442;28;20517;-69
2023/01/28 12:42:07;;;;;;;7.43;5.50;;;;;;;;;;5096911;28;20513;-69
2023/01/28 12:44:38;;;;;;;6.00;4.67;;;;;;;;;;5097771;28;20492;-69
2023/01/28 12:47:07;;;;;;;6.37;4.87;;;;;;;;;;5099052;28;20462;-71
2023/01/28 12:49:38;;;;;;;5.90;4.57;;;;;;;;;;5099118;28;20522;-71
2023/01/28 12:52:09;;;;;;;7.37;5.00;;;;;;;;;;5097882;28;20843;-71
2023/01/28 12:54:42;;;;;;;8.13;5.20;;;;;;;;;;5099178;28;20466;-71
2023/01/28 12:57:14;;;;;;;4.67;4.03;;;;;;;;;;5098972;28;20514;-71
2023/01/28 12:59:45;;;;;;;6.80;4.77;;;;;;;;;;5099248;28;20436;-71
2023/01/28 13:02:18;;;;;;;6.03;4.70;;;;;;;;;;5099466;28;20447;-70
2023/01/28 13:04:49;;;;;;;5.97;4.27;;;;;;;;;;5098872;28;20942;-70
2023/01/28 13:07:21;;;;;;;5.90;4.97;;;;;;;;;;5098889;28;20500;-71
2023/01/28 13:09:52;;;;;;;5.67;4.23;;;;;;;;;;5098949;28;20935;-71
2023/01/28 13:12:21;;;;;;;6.27;4.80;;;;;;;;;;5098275;28;20452;-71
2023/01/28 13:14:49;;;;;;;7.03;4.43;;;;;;;;;;5096901;28;20542;-71
2023/01/28 13:17:26;;;;;;;5.80;4.60;;;;;;;;;;5097070;28;20483;-69
2023/01/28 13:19:54;;;;;;;6.07;4.37;;;;;;;;;;5096905;28;20444;-69
2023/01/28 13:22:27;;;;;;;5.90;4.37;;;;;;;;;;5096498;28;20987;-70
2023/01/28 13:24:56;;;;;;;6.57;5.37;;;;;;;;;;5096803;28;20885;-69
2023/01/28 13:27:25;;;;;;;6.63;5.10;;;;;;;;;;5097030;28;20810;-70
2023/01/28 13:30:04;;;;;;;5.93;4.40;;;;;;;;;;5098622;28;20938;-69
2023/01/28 13:32:34;;;;;;;5.23;4.60;;;;;;;;;;5098662;28;20467;-69
2023/01/28 13:35:04;;;;;;;7.37;4.73;;;;;;;;;;5098379;28;20513;-69
2023/01/28 13:37:33;;;;;;;7.27;5.27;;;;;;;;;;5098290;28;20566;-70
2023/01/28 13:40:09;;;;;;;8.30;4.47;;;;;;;;;;5098700;28;20452;-70
2023/01/28 13:42:38;;;;;;;7.03;4.70;;;;;;;;;;5098475;28;20470;-69
2023/01/28 13:45:23;;;;;;;6.50;4.57;;;;;;;;;;5098329;28;20451;-69
2023/01/28 13:47:53;;;;;;;5.90;4.20;;;;;;;;;;5098540;28;20432;-70
2023/01/28 13:50:23;;;;;;;7.10;4.53;;;;;;;;;;5098384;28;20447;-70
2023/01/28 13:52:53;;;;;;;8.53;5.00;;;;;;;;;;5097640;28;20463;-70
2023/01/28 13:55:25;;;;;;;5.67;4.80;;;;;;;;;;5098437;28;20455;-69
2023/01/28 13:58:34;;;;;;;5.70;4.23;;;;;;;;;;5098298;28;20487;-69
2023/01/28 14:01:26;;;;;;;5.80;4.47;;;;;;;;;;5098231;28;20467;-69
2023/01/28 14:04:09;;;;;;;7.90;6.23;;;;;;;;;;5078063;28;20463;-69
2023/01/28 14:06:58;;;;;;;10.40;4.73;;;;;;;;;;5095144;28;20794;-69
2023/01/28 14:09:35;;;;;;;6.60;3.97;;;;;;;;;;5098274;28;20444;-69
2023/01/28 14:12:22;;;;;;;6.73;4.90;;;;;;;;;;5097947;28;20454;-70
2023/01/28 14:15:03;;;;;;;6.00;4.87;;;;;;;;;;5098264;28;20440;-69
2023/01/28 14:17:36;;;;;;;5.37;3.90;;;;;;;;;;5097731;28;20475;-70
2023/01/28 14:20:05;;;;;;;5.37;4.23;;;;;;;;;;5097608;28;20440;-70
2023/01/28 14:22:33;;;;;;;5.73;4.43;;;;;;;;;;5097854;28;20443;-70
2023/01/28 14:25:02;;;;;;;5.63;4.27;;;;;;;;;;5097837;28;20443;-70
2023/01/28 14:27:32;;;;;;;7.30;4.43;;;;;;;;;;5097838;28;20808;-69
2023/01/28 14:30:08;;;;;;;5.80;4.50;;;;;;;;;;5097906;28;20444;-69
2023/01/28 14:32:36;;;;;;;5.23;4.50;;;;;;;;;;5097848;28;20526;-70
2023/01/28 14:35:07;;;;;;;6.43;3.77;;;;;;;;;;5097531;28;20966;-70
2023/01/28 14:37:35;;;;;;;5.00;4.07;;;;;;;;;;5097686;28;20511;-70
2023/01/28 14:40:04;;;;;;;6.90;4.47;;;;;;;;;;5097913;28;20446;-69
2023/01/28 14:42:35;;;;;;;6.17;4.27;;;;;;;;;;5097514;28;20482;-70
2023/01/28 14:45:14;;;;;;;5.83;4.60;;;;;;;;;;5084696;28;20475;-70
2023/01/28 14:47:47;;;;;;;6.57;4.90;;;;;;;;;;5097420;28;20827;-70
2023/01/28 14:50:22;;;;;;;6.00;4.27;;;;;;;;;;5097422;28;20489;-69
2023/01/28 14:53:05;;;;;;;5.00;4.17;;;;;;;;;;5097071;28;20833;-70
2023/01/28 14:55:36;;;;;;;4.83;4.27;;;;;;;;;;5097644;28;20488;-70
2023/01/28 14:58:05;;;;;;;5.47;4.13;;;;;;;;;;5094400;28;20544;-70
2023/01/28 15:00:35;;;;;;;5.13;4.43;;;;;;;;;;5097198;28;20435;-70
2023/01/28 15:03:08;;;;;;;5.80;4.57;;;;;;;;;;5097613;28;20459;-69
2023/01/28 15:06:01;;;;;;;5.57;4.90;;;;;;;;;;5095659;28;20511;-69
2023/01/28 15:08:31;;;;;;;6.40;4.63;;;;;;;;;;5096944;28;20444;-70
2023/01/28 15:11:00;;;;;;;5.90;4.30;;;;;;;;;;5097191;28;20492;-70
2023/01/28 15:13:29;;;;;;;5.07;4.53;;;;;;;;;;5097375;28;20495;-70
2023/01/28 15:15:59;;;;;;;7.83;4.73;;;;;;;;;;5098273;28;20436;-69
2023/01/28 15:18:30;;;;;;;4.87;3.93;;;;;;;;;;5096778;28;20471;-70
2023/01/28 15:20:58;;;;;;;4.20;3.80;;;;;;;;;;5100790;28;20875;-70
2023/01/28 15:23:28;;;;;;;6.63;4.13;;;;;;;;;;5100710;28;20459;-70
2023/01/28 15:25:56;;;;;;;4.90;4.10;;;;;;;;;;5100869;28;20440;-69
2023/01/28 15:28:26;;;;;;;5.47;4.50;;;;;;;;;;5100799;28;20494;-70
2023/01/28 15:30:54;;;;;;;6.40;4.87;;;;;;;;;;5101709;28;20447;-69
2023/01/28 15:33:24;;;;;;;6.07;4.60;;;;;;;;;;5100943;28;20494;-70